Time;durP1;ratioP1;P1;durP2;ratioP2;P2;SDS_P1;SDS_P2;PMS_P1;PMS_P2;Temp;Humidity;BMP_temperature;BMP_pressure;BME280_temperature;BME280_humidity;BME280_pressure;Samples;Min_cycle;Max_cycle;Signal;HPM_P1;HPM_P2
2022/05/19 06:49:30;;;;;;;4.18;1.77;;;25.90;99.90;;;;;;4958199;23;20251;-71
2022/05/19 06:51:57;;;;;;;3.35;1.90;;;26.90;99.90;;;;;;4941190;28;20208;-69
2022/05/19 06:54:24;;;;;;;2.15;1.65;;;27.10;99.90;;;;;;4949828;28;20208;-70
2022/05/19 06:56:51;;;;;;;4.22;1.88;;;27.40;99.90;;;;;;4943860;28;20260;-69
2022/05/19 06:59:17;;;;;;;2.50;1.75;;;27.30;99.90;;;;;;4950157;28;20711;-73
2022/05/19 08:32:21;;;;;;;2.90;1.55;;;27.10;99.90;;;;;;5090213;27;20614;-74
2022/05/19 08:34:48;;;;;;;2.78;1.23;;;27.10;99.90;;;;;;5089258;28;20222;-72
2022/05/19 08:37:15;;;;;;;2.33;1.50;;;27.60;99.90;;;;;;5089637;28;20209;-71
2022/05/19 08:39:41;;;;;;;2.60;1.48;;;27.80;99.90;;;;;;5090075;28;20210;-73
2022/05/19 08:42:09;;;;;;;3.08;1.60;;;27.80;99.90;;;;;;5090312;28;20210;-71
2022/05/19 08:44:40;;;;;;;1.95;1.60;;;27.80;99.90;;;;;;5089840;28;20213;-74
2022/05/19 08:47:09;;;;;;;2.47;1.80;;;27.80;99.90;;;;;;5090396;28;20263;-71
2022/05/19 08:49:45;;;;;;;3.88;1.52;;;27.40;99.90;;;;;;5090214;28;20199;-73
2022/05/19 08:52:13;;;;;;;3.33;1.50;;;27.60;99.90;;;;;;5090071;28;20229;-69
2022/05/19 08:54:44;;;;;;;2.28;1.40;;;27.40;99.90;;;;;;5089833;28;20233;-69
2022/05/19 08:57:21;;;;;;;2.50;1.88;;;27.60;99.90;;;;;;5090025;28;20211;-72
2022/05/19 08:59:59;;;;;;;2.20;1.45;;;27.40;99.90;;;;;;5090159;28;20261;-72
2022/05/19 09:02:32;;;;;;;3.97;1.83;;;27.20;99.90;;;;;;5089740;28;20605;-69
2022/05/19 09:05:29;;;;;;;3.08;1.45;;;27.10;99.90;;;;;;5089398;28;20226;-69
2022/05/19 09:08:09;;;;;;;3.50;1.65;;;27.10;99.90;;;;;;5089609;28;20202;-72
2022/05/19 09:10:48;;;;;;;2.80;1.63;;;27.40;99.90;;;;;;5089131;28;20704;-72
2022/05/19 09:13:27;;;;;;;3.55;1.88;;;27.50;99.90;;;;;;5089115;28;20206;-69
2022/05/19 09:15:54;;;;;;;3.70;1.63;;;28.10;99.90;;;;;;5089286;28;20275;-69
2022/05/19 09:18:34;;;;;;;2.13;1.48;;;28.30;99.90;;;;;;5089205;28;20203;-70
2022/05/19 09:21:05;;;;;;;2.92;1.60;;;28.40;99.90;;;;;;5088920;28;20726;-72
2022/05/19 09:23:35;;;;;;;2.22;1.50;;;28.50;99.90;;;;;;5089339;28;20205;-72
2022/05/19 09:26:16;;;;;;;1.65;1.33;;;28.70;99.90;;;;;;5088995;28;20235;-70
2022/05/19 09:28:45;;;;;;;2.72;1.73;;;28.70;99.90;;;;;;5089404;28;20214;-69
2022/05/19 09:31:14;;;;;;;2.22;1.38;;;28.80;99.90;;;;;;5089019;28;20237;-69
2022/05/19 09:33:44;;;;;;;2.55;1.40;;;29.10;99.90;;;;;;5089155;28;20203;-69
2022/05/19 09:36:15;;;;;;;1.77;1.42;;;29.20;99.90;;;;;;5089429;28;20584;-69
2022/05/19 09:38:47;;;;;;;2.17;1.70;;;28.90;99.90;;;;;;5088979;28;20570;-69
2022/05/19 09:41:24;;;;;;;2.35;1.60;;;29.30;99.90;;;;;;5088980;28;20203;-72
2022/05/19 09:43:53;;;;;;;2.38;1.45;;;29.30;99.90;;;;;;5075088;28;20597;-69
2022/05/19 09:46:21;;;;;;;2.38;1.38;;;29.10;99.90;;;;;;5063327;28;20231;-73
2022/05/19 09:49:00;;;;;;;2.22;1.33;;;29.20;99.90;;;;;;5055517;28;20212;-70
2022/05/19 09:51:32;;;;;;;1.30;1.20;;;29.30;99.90;;;;;;5054873;28;20231;-70
2022/05/19 09:54:00;;;;;;;2.15;1.45;;;29.60;99.90;;;;;;5055400;28;20211;-71
2022/05/19 09:56:38;;;;;;;2.50;1.42;;;29.40;99.80;;;;;;5054950;28;20228;-69
2022/05/19 09:59:08;;;;;;;2.28;1.40;;;29.20;99.70;;;;;;5055057;28;20724;-69
2022/05/19 10:01:39;;;;;;;3.50;1.50;;;29.20;99.90;;;;;;5054731;28;20228;-72
2022/05/19 10:04:09;;;;;;;2.75;1.45;;;29.30;99.90;;;;;;5055062;28;20216;-72
2022/05/19 10:06:47;;;;;;;3.25;1.38;;;29.30;99.90;;;;;;5055187;28;20228;-71
2022/05/19 10:09:18;;;;;;;2.28;1.38;;;29.50;99.90;;;;;;5055149;28;20211;-69
2022/05/19 10:11:49;;;;;;;1.48;1.20;;;29.60;99.90;;;;;;5054660;28;20274;-68
2022/05/19 10:14:18;;;;;;;1.55;1.42;;;29.20;99.90;;;;;;5060015;28;20204;-68
2022/05/19 10:16:55;;;;;;;2.28;1.70;;;29.30;99.90;;;;;;5074989;28;20203;-71
2022/05/19 10:19:37;;;;;;;2.30;1.50;;;29.30;99.90;;;;;;5069568;28;20250;-71
2022/05/19 10:22:22;;;;;;;3.90;1.45;;;29.50;99.90;;;;;;5073576;28;20242;-72
2022/05/19 10:25:06;;;;;;;3.35;1.50;;;29.50;99.90;;;;;;5073162;28;20705;-71
2022/05/19 10:33:31;;;;;;;2.90;1.40;;;28.70;99.90;;;;;;5053142;28;20253;-70
2022/05/19 10:36:08;;;;;;;3.42;1.63;;;28.20;99.90;;;;;;5053112;28;20262;-68
2022/05/19 10:38:45;;;;;;;1.52;1.20;;;27.90;99.90;;;;;;5052184;28;20875;-71
2022/05/19 10:41:34;;;;;;;1.55;1.42;;;27.70;99.90;;;;;;5052040;28;20258;-69
2022/05/19 10:44:23;;;;;;;8.50;0.80;;;27.30;99.90;;;;;;5052815;28;20605;-68
2022/05/19 10:47:00;;;;;;;10.40;1.42;;;25.90;99.90;;;;;;5052242;28;20215;-69
2022/05/19 10:50:01;;;;;;;3.05;1.10;;;24.00;99.90;;;;;;5054392;28;20302;-69
2022/05/19 10:52:36;;;;;;;2.92;0.80;;;21.90;99.90;;;;;;5052204;28;20311;-70
2022/05/19 10:55:14;;;;;;;3.13;0.65;;;20.50;99.90;;;;;;5051526;28;20676;-69
2022/05/19 10:58:04;;;;;;;0.93;0.60;;;19.90;99.90;;;;;;5052108;28;20243;-69
2022/05/19 11:00:38;;;;;;;1.10;0.68;;;19.60;99.90;;;;;;5069307;28;20230;-69
2022/05/19 11:03:40;;;;;;;2.65;0.68;;;19.30;99.90;;;;;;5072114;28;20669;-70
2022/05/19 11:06:18;;;;;;;2.93;0.70;;;19.20;99.90;;;;;;5050868;28;20262;-69
2022/05/19 11:08:57;;;;;;;1.80;0.83;;;19.10;99.90;;;;;;5072615;28;20587;-70
2022/05/19 11:11:43;;;;;;;1.83;1.00;;;19.00;99.90;;;;;;5072141;28;20231;-69
2022/05/19 11:14:20;;;;;;;2.23;1.00;;;18.90;99.90;;;;;;5072344;28;20215;-70
2022/05/19 11:16:54;;;;;;;2.93;1.00;;;18.90;99.90;;;;;;5071336;28;20211;-70
2022/05/19 11:19:26;;;;;;;2.33;1.53;;;19.00;99.90;;;;;;5071622;28;20215;-70
2022/05/19 11:21:57;;;;;;;3.07;1.53;;;19.20;99.90;;;;;;5071820;28;20657;-71
2022/05/19 11:24:29;;;;;;;2.67;1.27;;;19.40;99.90;;;;;;5071860;28;20199;-70
2022/05/19 11:27:04;;;;;;;4.43;1.48;;;19.70;99.90;;;;;;5071364;28;20321;-72
2022/05/19 11:29:34;;;;;;;2.45;1.35;;;20.10;99.90;;;;;;5071754;28;20305;-70
2022/05/19 11:32:06;;;;;;;2.85;1.65;;;20.60;99.90;;;;;;5071727;28;20238;-69
2022/05/19 11:34:39;;;;;;;5.32;2.00;;;21.20;99.90;;;;;;5071418;28;20207;-70
2022/05/19 11:37:16;;;;;;;3.88;2.00;;;21.60;99.90;;;;;;5071910;28;20203;-70
2022/05/19 11:39:55;;;;;;;4.43;1.83;;;22.10;99.90;;;;;;5071606;28;20203;-70
2022/05/19 11:42:35;;;;;;;4.70;1.88;;;22.50;99.90;;;;;;5071507;28;20210;-70
2022/05/19 11:45:04;;;;;;;4.18;2.72;;;22.70;99.90;;;;;;5070919;28;20697;-70
2022/05/19 11:56:01;;;;;;;4.43;3.08;;;22.00;99.90;;;;;;5070111;28;20257;-70
2022/05/19 11:58:35;;;;;;;6.43;2.95;;;21.90;99.90;;;;;;5064682;28;20208;-70
2022/05/19 12:01:06;;;;;;;3.45;2.35;;;21.80;99.90;;;;;;5058295;28;20202;-71
2022/05/19 12:03:40;;;;;;;3.53;2.72;;;21.70;99.90;;;;;;5064576;28;20298;-70
2022/05/19 12:06:18;;;;;;;4.05;2.72;;;21.60;99.90;;;;;;5064782;28;20244;-73
2022/05/19 12:08:56;;;;;;;3.17;2.35;;;21.30;99.90;;;;;;5068150;28;20688;-72
2022/05/19 12:11:26;;;;;;;4.88;2.15;;;21.10;99.90;;;;;;5060772;28;20234;-73
2022/05/19 12:14:18;;;;;;;4.05;2.22;;;20.90;99.90;;;;;;5067660;28;20195;-73
2022/05/19 12:16:52;;;;;;;4.40;2.55;;;20.70;99.90;;;;;;5064580;28;20216;-72
2022/05/19 12:19:34;;;;;;;4.05;2.50;;;20.70;99.90;;;;;;5060283;28;20203;-72
2022/05/19 12:22:02;;;;;;;5.13;2.65;;;20.70;99.90;;;;;;5068715;28;20665;-73
2022/05/19 12:24:32;;;;;;;6.22;2.60;;;20.80;99.90;;;;;;5069277;28;20222;-72
2022/05/19 12:27:04;;;;;;;3.70;2.75;;;21.10;99.90;;;;;;5067973;28;20274;-74
2022/05/19 12:29:38;;;;;;;4.80;2.53;;;21.00;99.90;;;;;;5057095;28;20207;-75
2022/05/19 12:32:15;;;;;;;4.70;3.03;;;21.10;99.90;;;;;;5061003;28;20233;-74
2022/05/19 12:34:45;;;;;;;4.93;2.50;;;21.30;99.90;;;;;;5065745;28;20305;-76
2022/05/19 12:37:33;;;;;;;4.88;3.20;;;21.50;99.90;;;;;;5070916;28;20195;-77
2022/05/19 12:40:31;;;;;;;5.10;2.70;;;21.90;99.90;;;;;;5062024;28;20534;-71
2022/05/19 12:43:16;;;;;;;3.97;2.65;;;22.50;99.90;;;;;;5071097;28;20777;-73
2022/05/19 12:45:48;;;;;;;4.28;2.45;;;23.00;99.90;;;;;;5056900;28;20352;-74
2022/05/19 12:48:26;;;;;;;3.00;2.40;;;23.30;99.90;;;;;;5069426;28;20253;-72
2022/05/19 12:51:12;;;;;;;3.00;2.20;;;23.30;99.90;;;;;;5063307;28;20207;-72
2022/05/19 12:53:44;;;;;;;2.88;1.90;;;23.30;99.90;;;;;;5065161;28;20196;-77
2022/05/19 12:56:32;;;;;;;2.88;1.85;;;23.50;99.90;;;;;;5071505;28;20222;-73
2022/05/19 12:59:03;;;;;;;2.78;2.25;;;23.40;99.90;;;;;;5068312;28;20203;-77
2022/05/19 13:01:36;;;;;;;3.20;2.10;;;23.30;99.90;;;;;;5072203;28;20203;-73
2022/05/19 13:04:08;;;;;;;3.03;2.22;;;23.00;99.90;;;;;;5072016;28;20226;-72
2022/05/19 13:06:38;;;;;;;3.63;2.20;;;22.80;99.90;;;;;;5072572;28;20215;-75
2022/05/19 13:09:08;;;;;;;3.53;2.17;;;22.70;99.90;;;;;;5072032;28;20195;-73
2022/05/19 13:11:44;;;;;;;4.07;2.22;;;22.90;99.90;;;;;;5072689;28;20722;-79
2022/05/19 13:14:15;;;;;;;3.75;2.05;;;22.90;99.90;;;;;;5072456;28;20199;-77
2022/05/19 13:16:51;;;;;;;3.13;2.05;;;23.20;99.90;;;;;;5071507;28;20709;-76
2022/05/19 13:19:21;;;;;;;4.07;2.00;;;23.30;99.90;;;;;;5075464;28;20335;-73
2022/05/19 13:21:57;;;;;;;3.08;1.77;;;23.50;99.90;;;;;;5075511;28;20195;-73
2022/05/19 13:24:26;;;;;;;2.67;2.10;;;23.60;99.90;;;;;;5075222;28;20206;-76
2022/05/19 13:30:20;;;;;;;4.95;2.20;;;23.60;99.90;;;;;;5075410;28;20195;-76
2022/05/19 13:32:40;;;;;;;3.63;2.13;;;23.70;99.90;;;;;;5012829;28;20233;-72
2022/05/19 13:35:11;;;;;;;1.90;1.40;;;24.00;99.90;;;;;;5059555;28;20231;-75
2022/05/19 13:37:40;;;;;;;3.47;1.83;;;24.30;99.90;;;;;;5073396;28;20196;-74
2022/05/19 13:40:12;;;;;;;1.98;1.30;;;24.50;99.90;;;;;;5058988;28;20196;-73
2022/05/19 13:42:43;;;;;;;3.20;1.60;;;24.70;99.90;;;;;;5068228;28;20565;-73
2022/05/19 13:45:15;;;;;;;1.63;1.10;;;24.80;99.90;;;;;;5073589;28;20215;-75
2022/05/19 13:47:45;;;;;;;2.05;1.20;;;24.70;99.90;;;;;;5075099;28;20206;-75
2022/05/19 13:50:19;;;;;;;1.10;1.00;;;24.60;99.90;;;;;;5074754;28;20218;-75
2022/05/19 13:52:52;;;;;;;1.48;1.10;;;24.40;99.90;;;;;;5075115;28;20231;-74
2022/05/19 13:55:26;;;;;;;2.10;1.30;;;24.10;99.90;;;;;;5074571;28;20238;-73
2022/05/19 13:57:53;;;;;;;1.60;1.17;;;23.90;99.90;;;;;;5074430;28;20202;-73
2022/05/19 14:00:22;;;;;;;1.63;1.20;;;23.80;99.90;;;;;;5074583;28;20203;-73
2022/05/19 14:02:52;;;;;;;1.35;1.13;;;23.70;99.90;;;;;;5074822;28;20273;-73
2022/05/19 14:05:25;;;;;;;1.58;1.27;;;23.70;99.90;;;;;;5073835;28;20227;-75
2022/05/19 14:07:53;;;;;;;1.52;1.27;;;23.80;99.90;;;;;;5074634;28;20195;-75
2022/05/19 14:10:25;;;;;;;2.25;1.40;;;23.80;99.90;;;;;;5074268;28;20297;-72
2022/05/19 14:12:55;;;;;;;2.00;1.40;;;23.80;99.90;;;;;;5074035;28;20716;-71
2022/05/19 14:15:28;;;;;;;2.78;1.40;;;23.80;99.90;;;;;;5074088;28;20709;-72
2022/05/19 14:17:58;;;;;;;1.40;1.20;;;23.90;99.90;;;;;;5074174;28;20299;-72
2022/05/19 14:20:41;;;;;;;3.58;1.17;;;23.90;99.90;;;;;;5063863;28;20306;-70
2022/05/19 14:23:11;;;;;;;2.28;1.65;;;24.00;99.90;;;;;;5072542;28;20203;-70
2022/05/19 14:25:40;;;;;;;1.42;1.20;;;23.90;99.90;;;;;;5072547;28;20669;-73
2022/05/19 14:28:11;;;;;;;1.48;1.10;;;23.70;99.90;;;;;;5071308;28;20211;-70
2022/05/19 14:30:41;;;;;;;4.32;1.85;;;23.80;99.90;;;;;;5060126;28;20210;-72
2022/05/19 14:33:17;;;;;;;2.20;1.50;;;24.00;99.90;;;;;;5070628;28;20234;-72
2022/05/19 14:35:49;;;;;;;1.60;1.33;;;24.00;99.90;;;;;;5072730;28;20223;-69
2022/05/19 14:38:21;;;;;;;1.73;1.63;;;24.20;99.90;;;;;;5072191;28;20199;-73
2022/05/19 14:43:43;;;;;;;1.70;1.33;;;24.50;99.90;;;;;;5057187;28;20681;-71
2022/05/19 14:46:14;;;;;;;2.00;1.48;;;24.70;99.90;;;;;;5066428;28;20220;-71
2022/05/19 14:48:48;;;;;;;1.95;1.30;;;24.80;99.90;;;;;;5062326;28;20733;-72
2022/05/19 14:51:22;;;;;;;2.08;1.33;;;24.80;99.90;;;;;;5071426;28;20196;-71
2022/05/19 14:53:50;;;;;;;1.40;0.98;;;24.70;99.90;;;;;;5073536;28;20226;-70
2022/05/19 14:56:21;;;;;;;1.05;0.90;;;24.70;99.90;;;;;;5073438;28;20574;-71
2022/05/19 14:58:53;;;;;;;1.52;0.82;;;24.60;99.90;;;;;;5072820;28;20233;-71
2022/05/19 15:01:20;;;;;;;1.00;0.80;;;24.60;99.90;;;;;;5073142;28;20207;-71
2022/05/19 15:03:48;;;;;;;0.77;0.60;;;24.60;99.90;;;;;;5073119;28;20199;-71
2022/05/19 15:06:17;;;;;;;1.08;0.60;;;24.60;99.90;;;;;;5072854;28;20720;-71
2022/05/19 15:08:50;;;;;;;1.45;0.65;;;24.50;99.90;;;;;;5073463;28;20204;-76
2022/05/19 15:11:17;;;;;;;1.65;0.85;;;24.40;99.90;;;;;;5073037;28;20238;-77
2022/05/19 15:13:43;;;;;;;2.72;0.77;;;24.10;99.90;;;;;;5073288;28;20220;-71
2022/05/19 15:16:10;;;;;;;2.08;0.70;;;24.00;99.90;;;;;;5067646;28;20224;-71
2022/05/19 15:18:37;;;;;;;2.10;0.85;;;24.10;99.90;;;;;;5066947;28;20207;-73
2022/05/19 15:21:06;;;;;;;0.63;0.60;;;24.00;99.90;;;;;;5067327;28;20196;-71
2022/05/19 15:23:36;;;;;;;0.98;0.65;;;23.90;99.90;;;;;;5073089;28;20199;-71
2022/05/19 15:26:03;;;;;;;2.33;0.82;;;23.80;99.90;;;;;;5072585;28;20247;-71
2022/05/19 15:28:31;;;;;;;1.02;0.70;;;23.80;99.90;;;;;;5073117;28;20203;-71
2022/05/19 15:30:58;;;;;;;0.73;0.60;;;24.00;99.90;;;;;;5072677;28;20760;-71
2022/05/19 15:33:25;;;;;;;1.40;0.82;;;24.20;99.90;;;;;;5056255;28;20230;-71
2022/05/19 15:35:52;;;;;;;0.57;0.47;;;24.40;99.90;;;;;;5072941;28;20223;-71
2022/05/19 15:38:20;;;;;;;0.65;0.57;;;24.50;99.90;;;;;;5066903;28;20203;-72
2022/05/19 15:40:47;;;;;;;1.85;0.63;;;24.30;99.90;;;;;;5072084;28;20206;-71
2022/05/19 15:43:16;;;;;;;0.52;0.50;;;24.10;99.90;;;;;;5072644;28;20203;-76
2022/05/19 15:45:43;;;;;;;0.60;0.60;;;24.20;99.90;;;;;;5069413;28;20228;-71
2022/05/19 15:48:10;;;;;;;1.25;0.60;;;24.20;99.90;;;;;;5052760;28;20203;-71
2022/05/19 15:50:41;;;;;;;0.88;0.60;;;24.20;99.90;;;;;;5053096;28;20574;-72
2022/05/19 15:53:08;;;;;;;0.95;0.70;;;24.20;99.90;;;;;;5056167;28;20234;-71
2022/05/19 15:55:38;;;;;;;0.55;0.50;;;24.10;99.90;;;;;;5070035;28;20211;-71
2022/05/19 15:58:05;;;;;;;2.60;0.57;;;23.80;99.90;;;;;;5071481;28;20286;-71
2022/05/19 16:00:31;;;;;;;1.05;0.70;;;23.70;99.90;;;;;;5057343;28;20200;-75
2022/05/19 16:03:01;;;;;;;2.55;0.80;;;23.70;99.90;;;;;;5052873;28;20210;-76
2022/05/19 16:05:28;;;;;;;1.50;0.98;;;23.80;99.90;;;;;;5052317;28;20232;-71
2022/05/19 16:07:56;;;;;;;1.52;0.90;;;24.20;99.90;;;;;;5066280;28;20219;-77
2022/05/19 16:10:25;;;;;;;1.58;0.93;;;24.20;99.90;;;;;;5072201;28;20211;-71
2022/05/19 16:12:55;;;;;;;0.70;0.50;;;24.40;99.90;;;;;;5067207;28;20230;-72
2022/05/19 16:15:24;;;;;;;1.50;0.70;;;24.50;99.90;;;;;;5072140;28;20580;-71
2022/05/19 16:17:52;;;;;;;0.95;0.57;;;24.40;99.90;;;;;;5053335;28;20235;-70
2022/05/19 16:20:21;;;;;;;2.95;0.90;;;24.10;99.90;;;;;;5055310;28;20214;-71
2022/05/19 16:22:51;;;;;;;1.02;0.60;;;24.10;99.90;;;;;;5052182;28;20212;-71
2022/05/19 16:25:21;;;;;;;0.68;0.50;;;24.00;99.90;;;;;;5051662;28;20224;-75
2022/05/19 16:27:48;;;;;;;0.82;0.60;;;23.90;99.90;;;;;;5051668;28;20227;-72
2022/05/19 16:30:18;;;;;;;1.27;0.60;;;23.70;99.90;;;;;;5051816;28;20757;-76
2022/05/19 16:32:45;;;;;;;2.60;0.70;;;23.70;99.90;;;;;;5058958;28;20693;-71
2022/05/19 16:35:12;;;;;;;1.10;0.75;;;23.60;99.90;;;;;;5071668;28;20223;-76
2022/05/19 16:37:40;;;;;;;1.48;0.77;;;23.50;99.90;;;;;;5071860;28;20214;-72
2022/05/19 16:40:10;;;;;;;1.80;0.82;;;23.60;99.90;;;;;;5072151;28;20207;-72
2022/05/19 16:42:39;;;;;;;1.25;0.77;;;23.60;99.90;;;;;;5071458;28;20207;-71
2022/05/19 16:45:08;;;;;;;0.95;0.75;;;23.60;99.90;;;;;;5055547;28;20267;-71
2022/05/19 16:47:37;;;;;;;1.48;0.80;;;23.80;99.90;;;;;;5052012;28;20207;-71
2022/05/19 16:50:05;;;;;;;2.13;0.88;;;23.80;99.90;;;;;;5051839;28;20200;-71
2022/05/19 16:52:32;;;;;;;1.40;0.70;;;23.90;99.90;;;;;;5063654;28;20199;-71
2022/05/19 16:57:45;;;;;;;1.15;0.88;;;23.90;99.90;;;;;;5055725;28;20219;-73
2022/05/19 17:00:15;;;;;;;2.22;0.80;;;23.90;99.90;;;;;;5055617;28;20258;-74
2022/05/19 17:02:44;;;;;;;2.90;0.90;;;23.90;99.90;;;;;;5055616;28;20662;-71
2022/05/19 17:05:12;;;;;;;1.23;1.00;;;23.90;99.90;;;;;;5057558;28;20282;-71
2022/05/19 17:07:39;;;;;;;2.90;1.00;;;23.70;99.90;;;;;;5064027;28;20220;-76
2022/05/19 17:10:09;;;;;;;1.77;1.23;;;23.50;99.90;;;;;;5055484;28;20208;-70
2022/05/19 17:12:36;;;;;;;3.47;2.33;;;23.30;99.90;;;;;;5067446;28;20226;-70
2022/05/19 17:15:04;;;;;;;4.20;2.70;;;23.20;99.90;;;;;;5075360;28;20223;-71
2022/05/19 17:17:30;;;;;;;4.93;3.38;;;23.00;99.90;;;;;;5076233;28;20546;-71
2022/05/19 17:19:59;;;;;;;5.57;4.15;;;22.80;99.90;;;;;;5068680;28;20213;-75
2022/05/19 17:22:25;;;;;;;7.28;4.10;;;22.70;99.90;;;;;;5057874;28;20211;-74
2022/05/19 17:24:52;;;;;;;4.72;3.78;;;22.50;99.90;;;;;;5055486;28;20228;-73
2022/05/19 17:27:19;;;;;;;6.50;4.03;;;22.40;99.90;;;;;;5068735;28;20195;-74
2022/05/19 17:29:46;;;;;;;5.80;4.38;;;22.40;99.90;;;;;;5064745;28;20206;-73
2022/05/19 17:32:12;;;;;;;6.28;4.00;;;22.50;99.90;;;;;;5062999;28;20227;-75
2022/05/19 17:34:40;;;;;;;5.47;4.03;;;22.40;99.90;;;;;;5062765;28;20231;-72
2022/05/19 17:37:09;;;;;;;6.30;3.90;;;22.30;99.90;;;;;;5064635;28;20265;-72
2022/05/19 17:39:36;;;;;;;5.47;4.03;;;22.00;99.90;;;;;;5056571;28;20199;-71
2022/05/19 17:42:04;;;;;;;6.40;4.20;;;22.00;99.90;;;;;;5054130;28;20201;-72
2022/05/19 17:44:31;;;;;;;8.52;3.63;;;22.00;99.90;;;;;;5054712;28;20299;-72
2022/05/19 17:46:58;;;;;;;6.68;3.55;;;22.00;99.90;;;;;;5054665;28;20200;-73
2022/05/19 17:49:25;;;;;;;5.57;3.97;;;22.00;99.90;;;;;;5054530;28;20204;-75
2022/05/19 17:51:53;;;;;;;7.60;3.97;;;22.00;99.90;;;;;;5054818;28;20214;-72
2022/05/19 17:54:22;;;;;;;5.00;3.63;;;21.80;99.90;;;;;;5054979;28;20236;-73
2022/05/19 17:56:50;;;;;;;5.65;3.95;;;21.80;99.90;;;;;;5055028;28;20215;-75
2022/05/19 17:59:17;;;;;;;5.13;3.78;;;21.70;99.90;;;;;;5054435;28;20261;-72
2022/05/19 18:01:44;;;;;;;5.15;3.17;;;21.60;99.90;;;;;;5057440;28;20215;-73
2022/05/19 18:04:11;;;;;;;6.15;3.60;;;21.60;99.90;;;;;;5054359;28;20234;-72
2022/05/19 18:06:38;;;;;;;5.88;3.22;;;21.60;99.90;;;;;;5063825;28;20215;-76
2022/05/19 18:09:05;;;;;;;5.10;3.10;;;21.70;99.90;;;;;;5066343;28;20203;-71
2022/05/19 18:11:33;;;;;;;4.95;3.35;;;21.80;99.90;;;;;;5057881;28;20317;-72
2022/05/19 18:14:00;;;;;;;3.00;2.58;;;21.80;99.90;;;;;;5054387;28;20235;-71
2022/05/19 18:19:11;;;;;;;5.18;2.83;;;21.40;99.90;;;;;;5056530;28;20281;-76
2022/05/19 18:21:39;;;;;;;6.40;2.92;;;21.30;99.90;;;;;;5053856;28;20223;-71
2022/05/19 18:24:06;;;;;;;3.70;2.67;;;21.10;99.90;;;;;;5053736;28;20215;-74
2022/05/19 18:26:38;;;;;;;3.20;2.50;;;21.00;99.90;;;;;;5053540;28;20235;-76
2022/05/19 18:29:06;;;;;;;3.75;2.50;;;20.90;99.90;;;;;;5056235;28;20203;-73
2022/05/19 18:31:34;;;;;;;4.40;3.20;;;20.80;99.90;;;;;;5062910;28;20307;-72
2022/05/19 18:34:01;;;;;;;3.75;2.60;;;20.80;99.90;;;;;;5072736;28;20227;-73
2022/05/19 18:36:28;;;;;;;3.35;2.60;;;20.70;99.90;;;;;;5066373;28;20212;-74
2022/05/19 18:38:56;;;;;;;3.35;2.35;;;20.60;99.90;;;;;;5062481;28;20203;-75
2022/05/19 18:46:53;;;;;;;3.63;2.53;;;20.20;99.90;;;;;;5059076;28;20215;-72
2022/05/19 18:49:20;;;;;;;4.63;2.40;;;20.10;99.90;;;;;;5056043;28;20207;-71
2022/05/19 18:51:47;;;;;;;3.55;2.55;;;20.10;99.90;;;;;;5057996;28;20729;-74
2022/05/19 18:54:15;;;;;;;4.87;2.30;;;20.10;99.90;;;;;;5064117;28;20713;-75
2022/05/19 18:56:41;;;;;;;5.50;3.20;;;20.10;99.90;;;;;;5060196;28;20266;-72
2022/05/19 18:59:10;;;;;;;5.83;2.97;;;20.10;99.90;;;;;;5060260;28;20207;-71
2022/05/19 19:01:37;;;;;;;4.53;2.80;;;20.00;99.90;;;;;;5063532;28;20207;-73
2022/05/19 19:04:04;;;;;;;3.87;2.87;;;20.00;99.90;;;;;;5068431;28;20252;-72
2022/05/19 19:06:31;;;;;;;3.50;2.57;;;19.80;99.90;;;;;;5073208;28;20219;-74
2022/05/19 19:08:58;;;;;;;3.60;2.50;;;19.80;99.90;;;;;;5072589;28;20195;-72
2022/05/19 19:11:25;;;;;;;7.10;3.30;;;19.70;99.90;;;;;;5071048;28;20578;-70
2022/05/19 19:13:53;;;;;;;4.60;2.83;;;19.70;99.90;;;;;;5062927;28;20585;-69
2022/05/19 19:16:22;;;;;;;6.47;2.90;;;19.50;99.90;;;;;;5066373;28;20227;-73
2022/05/19 19:18:49;;;;;;;5.17;2.90;;;19.60;99.90;;;;;;5072806;28;20207;-73
2022/05/19 19:21:17;;;;;;;4.20;2.77;;;19.50;99.90;;;;;;5072296;28;20222;-70
2022/05/19 19:23:44;;;;;;;6.43;3.23;;;19.50;99.90;;;;;;5068925;28;20192;-72
2022/05/19 19:26:11;;;;;;;5.40;3.20;;;19.50;99.90;;;;;;5072197;28;20223;-70
2022/05/19 19:28:38;;;;;;;6.40;2.83;;;19.50;99.90;;;;;;5069425;28;20196;-70
2022/05/19 19:31:05;;;;;;;4.87;2.70;;;19.50;99.90;;;;;;5070837;28;20215;-73
2022/05/19 19:33:33;;;;;;;4.47;2.87;;;19.40;99.90;;;;;;5072327;28;20215;-71
2022/05/19 19:36:00;;;;;;;3.80;2.87;;;19.30;99.90;;;;;;5066560;28;20223;-70
2022/05/19 19:38:27;;;;;;;6.73;2.70;;;19.20;99.90;;;;;;5065817;28;20203;-69
2022/05/19 19:40:54;;;;;;;6.20;2.87;;;19.10;99.90;;;;;;5058679;28;20204;-70
2022/05/19 19:43:21;;;;;;;4.30;2.33;;;19.30;99.90;;;;;;5072486;28;20199;-69
2022/05/19 19:45:47;;;;;;;3.63;2.70;;;19.20;99.90;;;;;;5070275;28;20217;-71
2022/05/19 19:48:14;;;;;;;5.60;3.30;;;19.10;99.90;;;;;;5072140;28;20221;-69
2022/05/19 19:53:28;;;;;;;5.40;2.70;;;18.80;99.90;;;;;;5056807;28;20664;-69
2022/05/19 19:55:55;;;;;;;5.93;3.10;;;18.70;99.90;;;;;;5072151;28;20215;-69
2022/05/19 19:58:22;;;;;;;5.97;2.97;;;18.80;99.90;;;;;;5067276;28;20536;-70
2022/05/19 20:00:51;;;;;;;6.00;2.90;;;18.80;99.90;;;;;;5067617;28;20565;-69
2022/05/19 20:03:18;;;;;;;9.63;3.00;;;18.80;99.90;;;;;;5071522;28;20199;-69
2022/05/19 20:05:46;;;;;;;4.33;2.50;;;18.60;99.90;;;;;;5071481;28;20226;-71
2022/05/19 20:08:14;;;;;;;4.30;2.80;;;18.40;99.90;;;;;;5069279;28;20225;-72
2022/05/19 20:10:42;;;;;;;8.33;2.90;;;18.40;99.90;;;;;;5069075;28;20203;-71
2022/05/19 20:13:10;;;;;;;5.13;2.77;;;18.30;99.90;;;;;;5069246;28;20201;-70
2022/05/19 20:15:37;;;;;;;5.17;2.73;;;18.20;99.90;;;;;;5071511;28;20241;-69
2022/05/19 20:18:05;;;;;;;5.00;2.57;;;18.20;99.90;;;;;;5071988;28;20195;-69
2022/05/19 20:20:31;;;;;;;5.93;3.00;;;18.20;99.90;;;;;;5071459;28;20199;-72
2022/05/19 20:23:00;;;;;;;4.17;2.53;;;18.10;99.90;;;;;;5071646;28;20203;-71
2022/05/19 20:25:26;;;;;;;6.50;2.87;;;18.00;99.90;;;;;;5071668;28;20254;-71
2022/05/19 20:27:54;;;;;;;4.37;3.13;;;17.90;99.90;;;;;;5071674;28;20195;-71
2022/05/19 20:30:21;;;;;;;4.60;2.50;;;17.90;99.90;;;;;;5071469;28;20203;-69
2022/05/19 20:32:48;;;;;;;4.33;2.77;;;17.70;99.90;;;;;;5071538;28;20200;-70
2022/05/19 20:35:16;;;;;;;4.50;2.50;;;17.60;99.90;;;;;;5067145;28;20234;-69
2022/05/19 20:37:43;;;;;;;5.53;3.03;;;17.50;99.90;;;;;;5065522;28;20195;-69
2022/05/19 20:40:12;;;;;;;4.93;2.90;;;17.50;99.90;;;;;;5062630;28;20551;-69
2022/05/19 20:42:39;;;;;;;4.57;2.87;;;17.40;99.90;;;;;;5070269;28;20203;-69
2022/05/19 20:45:08;;;;;;;4.37;3.00;;;17.40;99.90;;;;;;5069730;28;20236;-69
2022/05/19 20:47:35;;;;;;;7.07;3.37;;;17.40;99.90;;;;;;5070106;28;20221;-69
2022/05/19 20:50:02;;;;;;;7.40;3.30;;;17.40;99.90;;;;;;5070416;28;20661;-70
2022/05/19 20:52:28;;;;;;;5.10;2.67;;;17.30;99.90;;;;;;5061294;28;20205;-68
2022/05/19 20:54:56;;;;;;;6.67;3.53;;;17.20;99.90;;;;;;5060842;28;20227;-68
2022/05/19 20:57:24;;;;;;;6.03;3.37;;;17.20;99.90;;;;;;5060930;28;20199;-70
2022/05/19 20:59:51;;;;;;;6.27;3.13;;;17.10;99.90;;;;;;5070178;28;20196;-70
2022/05/19 21:02:18;;;;;;;5.23;2.93;;;17.10;99.90;;;;;;5067105;28;20211;-69
2022/05/19 21:04:45;;;;;;;4.67;3.43;;;17.00;99.90;;;;;;5062669;28;20227;-69
2022/05/19 21:07:12;;;;;;;5.53;3.40;;;16.90;99.90;;;;;;5063791;28;20208;-69
2022/05/19 21:09:39;;;;;;;6.50;3.40;;;16.90;99.90;;;;;;5070900;28;20200;-68
2022/05/19 21:12:07;;;;;;;6.20;3.37;;;16.90;99.90;;;;;;5068519;28;20730;-69
2022/05/19 21:14:36;;;;;;;6.97;3.60;;;16.80;99.90;;;;;;5071414;28;20269;-70
2022/05/19 21:17:03;;;;;;;8.30;3.60;;;16.70;99.90;;;;;;5071092;28;20237;-70
2022/05/19 21:19:31;;;;;;;7.30;3.13;;;16.70;99.90;;;;;;5071361;28;20218;-68
2022/05/19 21:21:58;;;;;;;6.33;3.53;;;16.70;99.90;;;;;;5071106;28;20196;-69
2022/05/19 21:27:09;;;;;;;6.30;3.60;;;16.50;99.90;;;;;;5063712;28;20210;-68
2022/05/19 21:29:37;;;;;;;4.00;2.97;;;16.60;99.90;;;;;;5069682;28;20206;-68
2022/05/19 21:32:05;;;;;;;7.93;3.40;;;16.60;99.90;;;;;;5070426;28;20211;-67
2022/05/19 21:34:32;;;;;;;5.07;3.43;;;16.50;99.90;;;;;;5070701;28;20237;-68
2022/05/19 21:36:58;;;;;;;9.73;3.40;;;16.40;99.90;;;;;;5070766;28;20661;-68
2022/05/19 21:39:25;;;;;;;5.27;3.63;;;16.50;99.90;;;;;;5073471;28;20195;-68
2022/05/19 21:41:53;;;;;;;6.77;3.60;;;16.50;99.90;;;;;;5074997;28;20203;-69
2022/05/19 21:44:20;;;;;;;5.40;3.43;;;16.40;99.90;;;;;;5062759;28;20266;-69
2022/05/19 21:46:48;;;;;;;5.83;3.70;;;16.30;99.90;;;;;;5068356;28;20244;-68
2022/05/19 21:49:15;;;;;;;6.43;3.57;;;16.20;99.90;;;;;;5054591;28;20586;-68
2022/05/19 21:57:10;;;;;;;6.60;4.50;;;16.00;99.90;;;;;;5054987;28;20203;-68
2022/05/19 21:59:38;;;;;;;5.87;3.57;;;16.00;99.90;;;;;;5054438;28;20228;-69
2022/05/19 22:02:06;;;;;;;8.50;3.80;;;15.90;99.90;;;;;;5054419;28;20203;-68
2022/05/19 22:04:33;;;;;;;6.77;3.80;;;15.90;99.90;;;;;;5053584;28;20208;-68
2022/05/19 22:09:44;;;;;;;4.83;3.27;;;16.00;99.90;;;;;;5053534;28;20211;-69